Latest Coastal Weather Observations for Cape Otway

IDT60701

Issued at 8:16 pm EDT Wednesday 28 January 2015 (issued every 10 minutes, with the page automatically refreshed every 10 minutes)

About coastal observations | Map of coastal stations | Coastal observations for TAS | Marine services | Other Formats
Station Details ID: 090015 Name: CAPE OTWAY LIGHTHOUSE Lat: -38.86 Lon: 143.51 Height: 82.0 m
Data from the previous 72 hours. | See also: Recent months at Cape Otway
Date/Time
EDT
Temp

°C
Wind Pressure Rain
since 9am
mm
Weather Cloud Vis
km
Sea
Height
m
Swell
Dir
 
Speed
knots
Gust
knots
hPa Trend Height
m
Period
s
Dir
28/08:00pm 16.3 ESE 16 21 1021.4 - 0.0 - - - - - - -
28/07:30pm 16.6 E 17 22 1021.2 - 0.0 - - - - - - -
28/07:00pm 17.1 E 15 20 1021.1 - 0.0 - - - - - - -
28/06:30pm 17.3 E 13 20 1021.0 - 0.0 - - - - - - -
28/06:00pm 17.4 E 19 25 1020.5 - 0.0 - - - - - - -
28/05:30pm 17.5 ESE 20 25 1020.9 - 0.0 - - - - - - -
28/05:00pm 17.7 ESE 20 26 1020.9 - 0.0 - - - - - - -
28/04:30pm 17.8 ESE 21 28 1020.9 - 0.0 - - - - - - -
28/04:00pm 18.1 E 20 25 1020.9 - 0.0 - - - - - - -
28/03:30pm 17.9 ESE 22 27 1020.9 - 0.0 - - - - - - -
28/03:00pm 18.5 ESE 22 28 1020.7 - 0.0 - - - - - - -
28/02:30pm 18.3 ESE 21 27 1021.0 - 0.0 - - - - - - -
28/02:00pm 18.4 ESE 21 25 1021.0 - 0.0 - - - - - - -
28/01:30pm 19.1 E 20 26 1021.0 - 0.0 - - - - - - -
28/01:00pm 19.6 E 15 23 1021.1 - 0.0 - - - - - - -
28/12:30pm 18.1 E 19 25 1021.0 - 0.0 - - - - - - -
28/12:00pm 19.1 E 11 17 1020.7 - 0.0 - - - - - - -
28/11:30am 18.6 E 13 21 1020.7 - 0.0 - - - - - - -
28/11:15am 18.4 E 15 25 1020.8 - 0.0 - - - - - - -
28/11:13am 18.4 E 15 25 1020.8 - 0.0 - - - - - - -
28/11:00am 18.5 E 16 24 1020.7 - 0.0 - - - - - - -
28/10:30am 18.0 E 14 24 1020.5 - 0.0 - - - - - - -
28/10:00am 17.4 E 13 22 1020.2 - 0.0 - - - - - - -
28/09:30am 18.1 E 12 21 1019.9 - 0.0 - - - - - - -
28/09:00am 17.8 E 11 18 1019.6 - 0.0 - - - - - - -
28/08:30am 17.3 E 16 23 1019.4 - 0.0 - - - - - - -
28/08:00am 16.9 ESE 17 21 1019.0 - 0.0 - - - - - - -
28/07:30am 16.2 ESE 14 20 1018.6 - 0.0 - - - - - - -
28/07:00am 15.6 SE 11 16 1018.3 - 0.0 - - - - - - -
28/06:30am 15.0 S 7 13 1018.3 - 0.0 - - - - - - -
28/06:00am 14.9 SSW 6 11 1018.0 - 0.0 - - - - - - -
28/05:30am 14.7 W 5 11 1018.1 - 0.0 - - - - - - -
28/05:00am 14.5 SSW 6 11 1018.2 - 0.0 - - - - - - -
28/04:30am 14.4 W 6 11 1018.3 - 0.0 - - - - - - -
28/04:00am 14.4 SSW 8 16 1018.5 - 0.0 - - - - - - -
28/03:30am 14.3 W 6 14 1018.6 - 0.0 - - - - - - -
28/03:00am 14.3 SW 7 13 1018.6 - 0.0 - - - - - - -
28/02:30am 14.3 SSW 8 14 1019.0 - 0.0 - - - - - - -
28/02:00am 14.3 SW 7 12 1019.3 - 0.0 - - - - - - -
28/01:30am 14.3 S 9 15 1019.3 - 0.0 - - - - - - -
28/01:00am 14.5 W 8 16 1019.2 - 0.0 - - - - - - -
28/12:30am 14.4 S 9 17 1019.4 - 0.0 - - - - - - -
28/12:00am 14.3 SSW 8 17 1019.3 - 0.0 - - - - - - -
 
Date/Time
EDT
Temp

°C
Wind Pressure Rain
since 9am
mm
Weather Cloud Vis
km
Sea
Height
m
Swell
Dir
 
Speed
knots
Gust
knots
hPa Trend Height
m
Period
s
Dir
27/11:30pm 14.4 SW 8 16 1019.5 - 0.0 - - - - - - -
27/11:00pm 14.5 W 7 11 1019.5 - 0.0 - - - - - - -
27/10:30pm 14.5 WSW 7 10 1019.6 - 0.0 - - - - - - -
27/10:00pm 14.5 SW 6 11 1019.7 - 0.0 - - - - - - -
27/09:30pm 14.4 WSW 8 11 1019.3 - 0.0 - - - - - - -
27/09:00pm 14.5 WSW 8 12 1019.1 - 0.0 - - - - - - -
27/08:30pm 14.6 SW 8 13 1019.3 - 0.0 - - - - - - -
27/08:00pm 14.9 SW 7 11 1019.2 - 0.0 - - - - - - -
27/07:30pm 15.1 SW 7 12 1018.9 - 0.0 - - - - - - -
27/07:00pm 15.6 SW 7 12 1018.8 - 0.0 - - - - - - -
27/06:30pm 16.3 SW 6 9 1018.5 - 0.0 - - - - - - -
27/06:00pm 16.2 SW 7 11 1018.2 - 0.0 - - - - - - -
27/05:30pm 15.3 SW 8 12 1018.5 - 0.0 - - - - - - -
27/05:00pm 16.1 SW 6 10 1018.7 - 0.0 - - - - - - -
27/04:30pm 16.3 SW 8 13 1018.8 - 0.0 - - - - - - -
27/04:00pm 15.9 SW 7 11 1018.8 - 0.0 - - - - - - -
27/03:30pm 16.2 SSE 5 8 1019.0 - 0.0 - - - - - - -
27/03:00pm 16.1 SE 4 5 1018.8 - 0.0 - - - - - - -
27/02:30pm 15.2 NE 4 6 1019.1 - 0.0 - - - - - - -
27/02:00pm 15.3 SSE 4 5 1019.3 - 0.0 - - - - - - -
27/01:30pm 14.8 SSW 4 6 1019.5 - 0.0 - - - - - - -
27/01:00pm 15.3 SW 5 9 1019.3 - 0.0 - - - - - - -
27/12:30pm 14.3 SW 9 12 1019.3 - 0.0 - - - - - - -
27/12:00pm 14.4 SW 9 14 1019.1 - 0.0 - - - - - - -
27/11:30am 14.7 SW 8 14 1019.3 - 0.0 - - - - - - -
27/11:00am 18.2 SSE 5 9 1019.3 - 0.0 - - - - - - -
27/10:30am 16.1 S 4 8 1019.2 - 0.0 - - - - - - -
27/10:00am 15.1 SW 3 5 1019.3 - 0.0 - - - - - - -
27/09:30am 14.8 SW 4 8 1019.1 - 0.0 - - - - - - -
27/09:00am 14.8 SW 4 9 1018.8 - 0.0 - - - - - - -
27/08:30am 14.6 SW 5 7 1018.6 - 0.0 - - - - - - -
27/08:00am 15.3 S 4 8 1018.4 - 0.0 - - - - - - -
27/07:30am 14.8 SSE 4 7 1018.0 - 0.0 - - - - - - -
27/07:00am 14.2 ESE 4 7 1017.8 - 0.0 - - - - - - -
27/06:30am 13.2 SSW 3 6 1017.6 - 0.0 - - - - - - -
27/06:00am 13.3 SSE 4 7 1017.3 - 0.0 - - - - - - -
27/05:30am 13.5 S 4 8 1017.5 - 0.0 - - - - - - -
27/05:00am 13.5 SW 4 6 1017.5 - 0.0 - - - - - - -
27/04:30am 13.5 W 4 7 1017.6 - 0.0 - - - - - - -
27/04:00am 13.5 WSW 4 6 1017.7 - 0.0 - - - - - - -
27/03:30am 13.5 WSW 4 6 1017.8 - 0.0 - - - - - - -
27/03:00am 13.7 SW 4 7 1017.8 - 0.0 - - - - - - -
27/02:30am 13.7 W 4 6 1018.0 - 0.0 - - - - - - -
27/02:00am 13.8 W 4 6 1018.1 - 0.0 - - - - - - -
27/01:30am 13.8 SW 4 7 1018.2 - 0.0 - - - - - - -
27/01:00am 13.7 W 4 6 1018.3 - 0.0 - - - - - - -
27/12:30am 13.6 SW 4 9 1018.4 - 0.0 - - - - - - -
27/12:00am 13.6 N 3 8 1018.4 - 0.0 - - - - - - -
 
Date/Time
EDT
Temp

°C
Wind Pressure Rain
since 9am
mm
Weather Cloud Vis
km
Sea
Height
m
Swell
Dir
 
Speed
knots
Gust
knots
hPa Trend Height
m
Period
s
Dir
26/11:30pm 13.7 SSE 3 7 1018.8 - 0.0 - - - - - - -
26/11:00pm 13.9 SW 4 7 1019.0 - 0.0 - - - - - - -
26/10:30pm 13.9 SW 5 7 1019.1 - 0.0 - - - - - - -
26/10:00pm 13.7 SW 3 6 1019.1 - 0.0 - - - - - - -
26/09:30pm 13.9 SW 4 6 1019.0 - 0.0 - - - - - - -
26/09:00pm 13.9 SW 5 7 1018.5 - 0.0 - - - - - - -
26/08:30pm 14.5 SW 4 7 1018.5 - 0.0 - - - - - - -
26/08:00pm 15.1 SSW 5 8 1018.4 - 0.0 - - - - - - -
26/07:30pm 16.5 S 4 8 1018.2 - 0.0 - - - - - - -
26/07:00pm 16.0 SW 6 9 1017.8 - 0.0 - - - - - - -
26/06:30pm 16.4 SSW 6 9 1017.7 - 0.0 - - - - - - -
26/06:00pm 16.6 SSW 6 9 1017.5 - 0.0 - - - - - - -
26/05:30pm 16.4 SSW 7 11 1017.8 - 0.0 - - - - - - -
26/05:00pm 16.9 SSW 7 10 1018.0 - 0.0 - - - - - - -
26/04:30pm 17.1 SSW 8 11 1018.2 - 0.0 - - - - - - -
26/04:00pm 17.3 SSW 7 9 1017.9 - 0.0 - - - - - - -
26/03:30pm 16.4 SSW 8 13 1018.0 - 0.0 - - - - - - -
26/03:00pm 16.5 SSW 8 14 1017.8 - 0.0 - - - - - - -
26/02:30pm 16.8 SSW 9 12 1017.9 - 0.0 - - - - - - -
26/02:00pm 16.9 SSW 8 13 1018.1 - 0.0 - - - - - - -
26/01:30pm 17.0 SSW 7 13 1018.1 - 0.0 - - - - - - -
26/01:00pm 16.9 SSW 7 10 1018.1 - 0.0 - - - - - - -
26/12:30pm 16.8 SSW 8 13 1018.1 - 0.0 - - - - - - -
26/12:00pm 16.3 SSW 8 11 1017.9 - 0.0 - - - - - - -
26/11:30am 16.1 SSW 8 11 1018.2 - 0.0 - - - - - - -
26/11:00am 16.2 SSW 6 11 1018.2 - 0.0 - - - - - - -
26/10:30am 15.9 SSW 8 12 1018.0 - 0.0 - - - - - - -
26/10:00am 16.2 SSW 6 8 1017.6 - 0.0 - - - - - - -
26/09:30am 15.9 SSW 6 9 1017.5 - 0.0 - - - - - - -
26/09:00am 14.7 SSW 7 11 1017.1 - 3.0 - - - - - - -
26/08:30am 14.4 SW 9 12 1017.0 - 3.0 - - - - - - -
26/08:00am 14.4 SSW 9 11 1016.6 - 3.0 - - - - - - -
26/07:30am 13.9 SSW 8 11 1016.3 - 3.0 - - - - - - -
26/07:00am 13.8 SW 10 15 1015.7 - 3.0 - - - - - - -
26/06:30am 13.5 SSW 10 15 1015.3 - 3.0 - - - - - - -
26/06:00am 13.4 SSW 10 14 1014.7 - 3.0 - - - - - - -
26/05:30am 13.5 SW 11 15 1014.4 - 3.0 - - - - - - -
26/05:00am 13.4 SW 9 13 1014.3 - 3.0 - - - - - - -
26/04:30am 13.6 SW 11 16 1014.2 - 3.0 - - - - - - -
26/04:00am 13.6 SW 12 17 1013.9 - 3.0 - - - - - - -
26/03:30am 13.5 SSW 10 15 1013.9 - 3.0 - - - - - - -
26/03:00am 13.5 SW 10 18 1013.6 - 3.0 - - - - - - -
26/02:30am 13.0 SSW 15 21 1013.7 - 3.0 - - - - - - -
26/02:00am 13.4 WSW 14 21 1013.7 - 3.0 - - - - - - -
26/01:30am 13.4 SW 11 15 1013.7 - 3.0 - - - - - - -
26/01:00am 13.5 SW 13 17 1013.5 - 3.0 - - - - - - -
26/12:30am 13.7 SW 13 19 1013.5 - 3.0 - - - - - - -
26/12:00am 13.5 WSW 11 15 1013.3 - 3.0 - - - - - - -
 
Date/Time
EDT
Temp

°C
Wind Pressure Rain
since 9am
mm
Weather Cloud Vis
km
Sea
Height
m
Swell
Dir
 
Speed
knots
Gust
knots
hPa Trend Height
m
Period
s
Dir
25/11:30pm 13.6 SW 16 21 1013.3 - 3.0 - - - - - - -
25/11:00pm 13.3 WSW 9 14 1013.4 - 3.0 - - - - - - -
25/10:30pm 12.8 SW 14 22 1013.2 - 3.0 - - - - - - -
25/10:13pm 12.1 WSW 11 14 1013.1 - 3.0 - - - - - - -
25/10:00pm 12.1 SSW 18 34 1012.9 - 2.8 - - - - - - -
25/09:58pm 12.3 SSW 23 34 1012.8 - 2.6 - - - - - - -
25/09:57pm 12.0 SSW 20 34 1012.8 - 2.6 - - - - - - -
25/09:56pm 13.8 WSW 15 32 1012.7 - 2.4 - - - - - - -
25/09:54pm 13.8 SW 20 32 1012.7 - 2.4 - - - - - - -
25/09:30pm 13.4 W 16 22 1012.6 - 2.4 - - - - - - -
25/09:00pm 14.3 WSW 15 21 1011.9 - 2.4 - - - - - - -
25/08:32pm 14.4 WSW 16 26 1011.9 - 2.4 - - - - - - -
25/08:30pm 14.4 WSW 16 26 1011.9 - 2.4 - - - - - - -
25/08:19pm 14.4 WSW 16 26 1011.8 - 2.4 - - - - - - -
25/08:17pm 14.4 WSW 16 26 1011.8 - 2.4 - - - - - - -

Other Formats:

Comma delimited format used in spreadsheet applications
http://www.bom.gov.au/fwo/IDT60701/IDT60701.94842.axf

JavaScript Object Notation format (JSON) in row-major order
http://www.bom.gov.au/fwo/IDT60701/IDT60701.94842.json